createdAt,value
2022-12-22T09:54:09.331Z,23.69
2022-12-22T09:55:09.259Z,23.70
2022-12-22T09:56:09.311Z,23.70
2022-12-22T09:57:09.265Z,23.71
2022-12-22T09:58:12.396Z,23.71
2022-12-22T09:59:09.193Z,23.71
2022-12-22T10:00:09.232Z,23.71
2022-12-22T10:01:09.187Z,23.72
2022-12-22T10:02:09.218Z,23.73
2022-12-22T10:03:09.265Z,23.72
2022-12-22T10:04:09.147Z,23.73
2022-12-22T10:27:08.889Z,23.82
2022-12-22T10:50:11.110Z,23.90
2022-12-22T10:51:16.601Z,23.90
2022-12-22T10:54:32.691Z,23.91
2022-12-22T11:30:19.040Z,24.37
2022-12-22T12:14:07.170Z,24.49
2022-12-22T12:15:07.152Z,24.49
2022-12-22T12:16:07.149Z,24.50
2022-12-22T12:17:07.149Z,24.48
2022-12-22T12:18:07.057Z,24.48
2022-12-22T12:19:07.065Z,24.48
2022-12-22T12:20:07.007Z,24.48
2022-12-22T12:21:06.988Z,24.48
2022-12-22T12:22:07.004Z,24.49
2022-12-22T12:23:06.943Z,24.49
2022-12-22T12:24:06.932Z,24.49
2022-12-22T12:25:06.908Z,24.50
2022-12-22T12:26:06.871Z,24.49
2022-12-22T12:27:07.729Z,24.49
2022-12-22T12:28:06.838Z,24.49
2022-12-22T12:29:06.814Z,24.49
2022-12-22T12:30:37.131Z,24.49
2022-12-22T12:31:07.858Z,24.50
2022-12-22T12:32:06.892Z,24.48
2022-12-22T12:33:06.740Z,24.47
2022-12-22T12:34:06.720Z,24.48
2022-12-22T12:35:07.678Z,24.47
2022-12-22T12:36:06.689Z,24.46
2022-12-22T12:37:06.676Z,24.43
2022-12-22T12:38:06.650Z,24.42
2022-12-22T12:39:08.468Z,24.41
2022-12-22T12:40:06.618Z,24.39
2022-12-22T12:41:06.583Z,24.37
2022-12-22T12:42:06.550Z,24.37
2022-12-22T12:43:09.620Z,24.36
2022-12-22T12:44:07.533Z,24.35
2022-12-22T12:45:06.523Z,24.34
2022-12-22T12:46:06.504Z,24.32
2022-12-22T12:47:06.598Z,24.30
2022-12-22T12:48:06.460Z,24.30
2022-12-22T12:49:06.425Z,24.28
2022-12-22T12:50:06.414Z,24.28
2022-12-22T12:51:06.389Z,24.28
2022-12-22T12:52:06.371Z,24.27
2022-12-22T12:53:06.362Z,24.27
2022-12-22T12:54:06.332Z,24.26
2022-12-22T13:14:06.005Z,24.17
2022-12-22T13:15:06.696Z,24.17
2022-12-22T13:16:06.141Z,24.17
2022-12-22T13:17:06.136Z,24.16
2022-12-22T13:18:06.122Z,24.17
2022-12-22T13:19:06.030Z,24.16
2022-12-22T13:22:05.988Z,24.16
2022-12-22T13:25:05.941Z,24.14
2022-12-22T13:46:05.543Z,24.09
2022-12-22T13:47:05.593Z,24.09
2022-12-22T13:48:05.521Z,24.09
2022-12-22T13:49:05.512Z,24.09
2022-12-22T13:50:09.808Z,24.09
2022-12-22T13:51:05.470Z,24.08
2022-12-22T13:52:05.880Z,24.08
2022-12-22T13:53:05.430Z,24.08
2022-12-22T13:54:10.182Z,24.07
2022-12-22T13:55:06.380Z,24.07
2022-12-22T13:56:05.399Z,24.06
2022-12-22T13:57:05.331Z,24.08
2022-12-22T13:58:05.410Z,24.07
2022-12-22T13:59:05.298Z,24.07
2022-12-22T14:00:05.372Z,24.07
2022-12-22T14:01:05.312Z,24.07
2022-12-22T14:02:05.385Z,24.08
2022-12-22T14:03:08.932Z,24.07
2022-12-22T14:04:05.407Z,24.06
2022-12-22T14:05:05.184Z,24.05
2022-12-22T14:06:05.170Z,24.06
2022-12-22T14:07:05.141Z,24.06
2022-12-22T14:08:05.128Z,24.05
2022-12-22T14:09:05.102Z,24.05
2022-12-22T14:10:05.105Z,24.05
2022-12-22T14:11:05.073Z,24.05
2022-12-22T14:12:05.039Z,24.05
2022-12-22T14:13:05.011Z,24.05
2022-12-22T14:14:05.002Z,24.05
2022-12-22T14:15:05.111Z,24.05
2022-12-22T14:16:05.013Z,24.04
2022-12-22T14:17:04.937Z,24.04
2022-12-22T14:18:04.975Z,24.04
2022-12-22T14:19:04.913Z,24.04
2022-12-22T14:20:04.981Z,24.04
2022-12-22T14:21:04.876Z,24.03
2022-12-22T14:22:04.912Z,24.03
2022-12-22T14:23:04.831Z,24.04
2022-12-22T14:24:05.197Z,24.03
2022-12-22T14:25:04.849Z,24.03
2022-12-22T14:26:04.851Z,24.03
2022-12-22T14:27:04.865Z,24.02
2022-12-22T14:28:04.713Z,24.01
2022-12-22T14:29:04.716Z,24.02
2022-12-22T14:30:04.871Z,24.01
2022-12-22T14:31:04.896Z,24.02
2022-12-22T14:32:04.695Z,24.02
2022-12-22T14:33:04.655Z,24.02
2022-12-22T14:34:04.640Z,24.00
2022-12-22T14:35:04.577Z,24.01
2022-12-22T14:36:04.579Z,24.00
2022-12-22T14:37:04.565Z,23.99
2022-12-22T14:38:04.538Z,23.99
2022-12-22T14:39:09.581Z,24.00
2022-12-22T14:40:06.208Z,23.98
2022-12-22T14:41:04.552Z,23.99
2022-12-22T14:42:04.469Z,23.99
2022-12-22T14:43:04.435Z,23.98
2022-12-22T14:44:04.432Z,23.98
2022-12-22T14:45:04.405Z,23.97
2022-12-22T14:46:04.444Z,23.97
2022-12-22T14:47:04.383Z,23.96
2022-12-22T14:48:04.365Z,23.97
2022-12-22T14:49:04.356Z,23.97
2022-12-22T14:50:04.342Z,23.96
2022-12-22T14:51:04.341Z,23.98
2022-12-22T14:52:05.196Z,23.97
2022-12-22T14:53:04.291Z,23.97
2022-12-22T14:54:04.291Z,23.96
2022-12-22T14:55:04.261Z,23.96
2022-12-22T14:56:04.264Z,23.95
2022-12-22T14:57:07.294Z,23.96
2022-12-22T14:58:04.240Z,23.95
2022-12-22T14:59:04.215Z,23.95
2022-12-22T15:00:04.187Z,23.94
2022-12-22T15:01:04.225Z,23.95
2022-12-22T15:02:04.410Z,23.95
2022-12-22T15:03:04.286Z,23.96
2022-12-22T15:04:04.243Z,23.94
2022-12-22T15:05:04.119Z,23.94
2022-12-22T15:06:04.091Z,23.94
2022-12-22T15:07:04.120Z,23.94
2022-12-22T15:08:06.490Z,23.93
2022-12-22T15:10:15.101Z,23.93
2022-12-22T15:12:03.997Z,23.93
2022-12-22T15:13:03.987Z,23.91
2022-12-22T15:14:03.976Z,23.91
2022-12-22T15:15:03.969Z,23.92
2022-12-22T15:16:03.919Z,23.91
2022-12-22T15:17:03.977Z,23.91
2022-12-22T15:31:03.728Z,23.88
2022-12-22T15:32:03.675Z,23.89
2022-12-22T15:33:03.669Z,23.89
2022-12-22T15:34:03.640Z,23.88
2022-12-22T15:35:03.615Z,23.88
2022-12-22T15:36:03.601Z,23.88
2022-12-22T15:37:03.561Z,23.87
2022-12-22T15:38:03.545Z,23.88
2022-12-22T15:39:03.547Z,23.88
2022-12-22T15:40:03.540Z,23.88
2022-12-22T15:41:03.507Z,23.87
2022-12-22T15:42:03.489Z,23.87
2022-12-22T15:43:03.480Z,23.86
2022-12-22T15:44:03.475Z,23.86
2022-12-22T15:45:03.442Z,23.86
2022-12-22T15:46:03.506Z,23.87
2022-12-22T15:47:03.407Z,23.86
2022-12-22T15:48:03.403Z,23.85
2022-12-22T15:49:03.378Z,23.86
2022-12-22T15:50:03.438Z,23.85
2022-12-22T15:51:03.357Z,23.85
2022-12-22T15:52:03.315Z,23.84
2022-12-22T15:53:03.300Z,23.85
2022-12-22T15:54:03.311Z,23.84
2022-12-22T15:55:03.320Z,23.84
2022-12-22T15:56:03.252Z,23.84
2022-12-22T15:57:03.258Z,23.84
2022-12-22T15:58:03.230Z,23.83
2022-12-22T15:59:03.216Z,23.84
2022-12-22T16:00:03.228Z,23.83
2022-12-22T16:01:03.301Z,23.84
2022-12-22T16:02:03.231Z,23.83
2022-12-22T16:03:03.987Z,23.83
2022-12-22T16:04:03.205Z,23.81
2022-12-22T16:05:03.191Z,23.81
2022-12-22T16:06:03.711Z,23.80
2022-12-22T16:07:03.172Z,23.80
2022-12-22T16:08:03.211Z,23.80
2022-12-22T16:09:03.156Z,23.79
2022-12-22T16:10:03.157Z,23.79
2022-12-22T16:11:03.139Z,23.78
2022-12-22T16:12:03.142Z,23.78
2022-12-22T16:13:03.099Z,23.78
2022-12-22T16:14:03.113Z,23.77
2022-12-22T16:15:03.101Z,23.77
2022-12-22T16:16:03.102Z,23.76
2022-12-22T16:17:03.126Z,23.75
2022-12-22T16:18:03.046Z,23.75
2022-12-22T16:19:03.083Z,23.74
2022-12-22T16:20:03.082Z,23.74
2022-12-22T16:21:03.033Z,23.74
2022-12-22T16:22:03.003Z,23.73
2022-12-22T16:23:03.018Z,23.73
2022-12-22T16:24:03.008Z,23.72
2022-12-22T16:25:02.982Z,23.72
2022-12-22T16:26:02.992Z,23.72
2022-12-22T16:27:02.976Z,23.71
2022-12-22T16:28:02.985Z,23.70
2022-12-22T16:29:02.947Z,23.71
2022-12-22T16:30:02.950Z,23.70
2022-12-22T16:31:03.005Z,23.70
2022-12-22T16:32:02.916Z,23.69
2022-12-22T16:33:02.918Z,23.68
2022-12-22T16:34:02.905Z,23.67
2022-12-22T16:35:02.910Z,23.67
2022-12-22T16:36:03.717Z,23.66
2022-12-22T16:37:03.747Z,23.66
2022-12-22T16:38:03.719Z,23.66
2022-12-22T16:39:02.855Z,23.66
2022-12-22T16:40:03.737Z,23.66
2022-12-22T16:41:03.240Z,23.65
2022-12-22T16:42:02.867Z,23.64
2022-12-22T19:09:44.999Z,23.37
2022-12-22T19:10:44.999Z,23.36
2022-12-22T19:11:44.995Z,23.36
2022-12-22T19:12:45.037Z,23.36
2022-12-22T19:13:46.068Z,23.36
2022-12-22T19:14:45.001Z,23.36
2022-12-22T19:15:44.939Z,23.36
2022-12-22T19:16:45.017Z,23.36
2022-12-22T19:17:44.941Z,23.35
2022-12-22T19:18:44.992Z,23.36
2022-12-22T19:19:44.905Z,23.35
2022-12-22T19:20:44.901Z,23.36
2022-12-22T19:21:44.880Z,23.36
2022-12-22T19:22:44.876Z,23.35
2022-12-22T19:23:44.877Z,23.35
2022-12-22T19:24:44.890Z,23.35
2022-12-22T19:25:44.842Z,23.34
2022-12-22T19:27:44.834Z,23.35
2022-12-22T19:28:44.818Z,23.35
2022-12-22T19:29:44.822Z,23.34
2022-12-22T19:30:44.797Z,23.34
2022-12-22T19:31:45.005Z,23.33
2022-12-22T19:32:44.845Z,23.33
2022-12-22T19:33:44.781Z,23.33
2022-12-22T19:34:44.762Z,23.34
2022-12-22T19:35:44.753Z,23.33
2022-12-22T19:36:44.741Z,23.34
2022-12-22T19:37:44.746Z,23.34
2022-12-22T19:38:49.946Z,23.34
2022-12-22T19:39:45.790Z,23.33
2022-12-22T19:40:45.451Z,23.34
2022-12-22T19:41:44.919Z,23.33
2022-12-22T19:42:44.973Z,23.34
2022-12-22T19:43:44.908Z,23.33
2022-12-22T19:44:44.934Z,23.34
2022-12-22T19:45:44.893Z,23.34
2022-12-22T19:46:44.873Z,23.33
2022-12-22T19:47:44.842Z,23.34
2022-12-22T19:48:44.988Z,23.33
2022-12-22T19:49:44.836Z,23.33
2022-12-22T19:50:44.821Z,23.33
2022-12-22T19:51:44.866Z,23.33
2022-12-22T19:52:44.813Z,23.33
2022-12-22T19:53:44.812Z,23.33
2022-12-22T19:54:44.799Z,23.33
2022-12-22T19:55:44.789Z,23.33
2022-12-22T19:56:44.785Z,23.33
2022-12-22T19:57:44.790Z,23.33
2022-12-22T19:58:44.787Z,23.33
2022-12-22T19:59:44.936Z,23.32
2022-12-22T20:00:44.818Z,23.33
2022-12-22T20:01:44.910Z,23.32
2022-12-22T20:02:44.891Z,23.32
2022-12-22T20:03:44.896Z,23.33
2022-12-22T20:04:44.730Z,23.33
2022-12-22T20:05:45.464Z,23.32
2022-12-22T20:06:44.703Z,23.33
2022-12-22T20:07:44.704Z,23.32
2022-12-22T20:08:44.706Z,23.32
2022-12-22T20:09:44.677Z,23.32
2022-12-22T20:10:44.679Z,23.32
2022-12-22T20:11:44.724Z,23.32
2022-12-22T20:12:44.652Z,23.33
2022-12-22T20:13:44.680Z,23.33
2022-12-22T20:14:44.655Z,23.32
2022-12-22T20:15:44.680Z,23.32
2022-12-22T20:16:44.788Z,23.32
2022-12-22T20:17:44.649Z,23.32
2022-12-22T20:18:44.661Z,23.32
2022-12-22T20:19:44.658Z,23.32
2022-12-22T20:20:44.655Z,23.32
2022-12-22T20:21:44.651Z,23.33
2022-12-22T20:22:44.655Z,23.32
2022-12-22T20:23:44.698Z,23.32
2022-12-22T20:24:44.649Z,23.33
2022-12-22T20:25:44.672Z,23.33
2022-12-22T20:26:50.143Z,23.33
2022-12-22T20:27:45.615Z,23.32
2022-12-22T20:28:44.614Z,23.33
2022-12-22T20:29:45.614Z,23.32
2022-12-22T20:30:44.621Z,23.33
2022-12-22T20:31:44.625Z,23.33
2022-12-22T20:32:44.577Z,23.33
2022-12-22T20:33:44.577Z,23.33
2022-12-22T20:34:44.553Z,23.33
2022-12-22T20:35:44.606Z,23.33
2022-12-22T20:36:44.583Z,23.33
2022-12-22T20:37:44.555Z,23.33
2022-12-22T20:38:44.550Z,23.33
2022-12-22T20:39:44.527Z,23.33
2022-12-22T20:40:44.548Z,23.33
2022-12-22T20:41:50.523Z,23.33
2022-12-22T20:42:44.500Z,23.33
2022-12-22T20:43:44.521Z,23.32
2022-12-22T20:45:02.685Z,23.33
2022-12-22T20:45:44.545Z,23.32
2022-12-22T20:46:44.510Z,23.32
2022-12-22T20:47:44.444Z,23.33
2022-12-22T20:48:44.436Z,23.33
2022-12-22T20:49:44.427Z,23.33
2022-12-22T20:50:44.397Z,23.33
2022-12-22T20:51:44.424Z,23.33
2022-12-22T20:52:44.392Z,23.33
2022-12-22T20:53:44.377Z,23.33
2022-12-22T20:54:44.373Z,23.33
2022-12-22T20:55:44.355Z,23.33
2022-12-22T20:56:44.375Z,23.33
2022-12-22T20:57:44.353Z,23.33
2022-12-22T20:58:44.373Z,23.33
2022-12-22T20:59:44.359Z,23.33
2022-12-22T21:00:44.313Z,23.33
2022-12-22T21:01:44.398Z,23.33
2022-12-22T21:02:44.448Z,23.33
2022-12-22T21:03:44.359Z,23.33
2022-12-22T21:04:44.277Z,23.33
2022-12-22T21:05:44.270Z,23.33
2022-12-22T21:06:44.266Z,23.33
2022-12-22T21:07:44.320Z,23.34
2022-12-22T21:08:44.357Z,23.34
2022-12-22T21:09:44.263Z,23.34
2022-12-22T21:10:44.314Z,23.34
2022-12-22T21:11:44.222Z,23.34
2022-12-22T21:12:44.207Z,23.33
2022-12-22T21:13:44.202Z,23.34
2022-12-22T21:14:44.200Z,23.33
2022-12-22T21:15:44.202Z,23.33
2022-12-22T21:16:44.218Z,23.33
2022-12-22T21:17:46.214Z,23.33
2022-12-22T21:18:44.174Z,23.33
2022-12-22T21:19:44.181Z,23.34
2022-12-22T21:20:44.137Z,23.34
2022-12-22T21:21:44.152Z,23.34
2022-12-22T21:22:44.157Z,23.34
2022-12-22T21:23:44.127Z,23.34
2022-12-22T21:24:44.118Z,23.34
2022-12-22T21:25:46.815Z,23.35
2022-12-22T21:26:44.095Z,23.34
2022-12-22T21:27:44.119Z,23.34
2022-12-22T21:28:44.075Z,23.34
2022-12-22T21:29:44.058Z,23.34
2022-12-22T21:30:44.161Z,23.35
2022-12-22T21:31:44.046Z,23.35
2022-12-22T21:32:44.035Z,23.34
2022-12-22T21:33:44.051Z,23.34
2022-12-22T21:34:44.062Z,23.34
2022-12-22T21:35:44.043Z,23.34
2022-12-22T21:36:43.997Z,23.35
2022-12-22T21:37:43.999Z,23.34
2022-12-22T21:38:43.974Z,23.34
2022-12-22T21:39:43.989Z,23.34
2022-12-22T21:40:43.951Z,23.33
2022-12-22T21:41:43.991Z,23.35
2022-12-22T21:42:43.925Z,23.34
2022-12-22T21:43:43.920Z,23.34
2022-12-22T21:44:43.903Z,23.34
2022-12-22T21:45:44.478Z,23.35
2022-12-22T21:46:44.013Z,23.35
2022-12-22T21:47:43.882Z,23.35
2022-12-22T21:48:43.861Z,23.34
2022-12-22T21:49:43.850Z,23.34
2022-12-22T21:50:43.867Z,23.35
2022-12-22T21:51:44.511Z,23.35
2022-12-22T21:52:43.816Z,23.35
2022-12-22T21:53:43.900Z,23.34
2022-12-22T21:54:44.511Z,23.35
2022-12-22T21:55:43.983Z,23.35
2022-12-22T21:56:44.026Z,23.34
2022-12-22T21:57:43.986Z,23.34
2022-12-22T21:58:44.011Z,23.35
2022-12-22T21:59:43.959Z,23.35
2022-12-22T22:00:43.955Z,23.35
2022-12-22T22:01:43.998Z,23.35
2022-12-22T22:02:44.054Z,23.35
2022-12-22T22:03:44.582Z,23.35
2022-12-22T22:04:48.416Z,23.35
2022-12-22T22:05:44.056Z,23.35
2022-12-22T22:06:43.983Z,23.35
2022-12-22T22:07:43.952Z,23.35
2022-12-22T22:08:43.923Z,23.35
2022-12-22T22:09:43.970Z,23.35
2022-12-22T22:10:45.528Z,23.35
2022-12-22T22:11:43.994Z,23.35
2022-12-22T22:12:43.846Z,23.35
2022-12-22T22:13:43.926Z,23.35
2022-12-22T22:14:43.825Z,23.35
2022-12-22T22:15:43.947Z,23.36
2022-12-22T22:16:43.797Z,23.36
2022-12-22T22:17:43.808Z,23.36
2022-12-22T22:18:43.791Z,23.36
2022-12-22T22:19:44.448Z,23.35
2022-12-22T22:20:43.762Z,23.37
2022-12-22T22:21:43.770Z,23.36
2022-12-22T22:22:43.744Z,23.36
2022-12-22T22:23:43.751Z,23.36
2022-12-22T22:24:43.735Z,23.36
2022-12-22T22:25:43.719Z,23.36
2022-12-22T22:26:43.737Z,23.36
2022-12-22T22:27:47.660Z,23.36
2022-12-22T22:28:43.710Z,23.36
2022-12-22T22:29:43.708Z,23.36
2022-12-22T22:30:43.719Z,23.35
2022-12-22T22:31:43.736Z,23.35
2022-12-22T22:32:43.703Z,23.35
2022-12-22T22:33:43.694Z,23.35
2022-12-22T22:34:43.650Z,23.36
2022-12-22T22:35:43.648Z,23.35
2022-12-22T22:36:43.651Z,23.36
2022-12-22T22:37:43.636Z,23.36
2022-12-22T22:38:43.648Z,23.37
2022-12-22T22:39:43.609Z,23.36
2022-12-22T22:40:43.642Z,23.36
2022-12-22T22:41:44.038Z,23.37
2022-12-22T22:42:43.592Z,23.37
2022-12-22T22:43:43.586Z,23.37
2022-12-22T22:44:43.562Z,23.37
2022-12-22T22:45:43.566Z,23.36
2022-12-22T22:46:43.618Z,23.36
2022-12-22T22:47:43.540Z,23.36
2022-12-22T22:48:43.536Z,23.37
2022-12-22T22:49:43.511Z,23.37
2022-12-22T22:50:43.515Z,23.36
2022-12-22T22:51:43.488Z,23.37
2022-12-22T22:52:43.475Z,23.37
2022-12-22T22:53:43.482Z,23.36
2022-12-22T22:54:43.456Z,23.36
2022-12-22T22:55:43.466Z,23.37
2022-12-22T22:56:43.517Z,23.36
2022-12-22T22:57:43.451Z,23.37
2022-12-22T22:58:43.419Z,23.37
2022-12-22T22:59:43.458Z,23.36
2022-12-22T23:00:43.400Z,23.37
2022-12-22T23:01:44.145Z,23.36
2022-12-22T23:02:43.666Z,23.37
2022-12-22T23:03:43.435Z,23.36
2022-12-22T23:04:43.354Z,23.36
2022-12-22T23:05:43.393Z,23.36
2022-12-22T23:06:43.322Z,23.37
2022-12-22T23:07:43.303Z,23.37
2022-12-22T23:08:43.337Z,23.37
2022-12-22T23:09:43.291Z,23.38
2022-12-22T23:10:43.269Z,23.38
2022-12-22T23:11:43.274Z,23.38
2022-12-22T23:12:43.245Z,23.39
2022-12-22T23:13:43.232Z,23.39
2022-12-22T23:14:43.244Z,23.39
2022-12-22T23:15:43.284Z,23.39
2022-12-22T23:16:44.299Z,23.39
2022-12-22T23:17:43.193Z,23.38
2022-12-22T23:18:43.203Z,23.37
2022-12-22T23:19:43.176Z,23.38
2022-12-22T23:20:43.549Z,23.38
2022-12-22T23:21:43.169Z,23.38
2022-12-22T23:22:43.148Z,23.37
2022-12-22T23:23:43.137Z,23.38
2022-12-22T23:24:43.122Z,23.38
2022-12-22T23:25:43.122Z,23.39
2022-12-22T23:26:43.205Z,23.39
2022-12-22T23:27:43.089Z,23.39
2022-12-22T23:28:43.087Z,23.40
2022-12-22T23:29:43.149Z,23.39
2022-12-22T23:30:43.068Z,23.39
2022-12-22T23:31:43.245Z,23.39
2022-12-22T23:32:43.062Z,23.39
2022-12-22T23:33:43.025Z,23.39
2022-12-22T23:34:43.043Z,23.39
2022-12-22T23:35:43.091Z,23.39
2022-12-22T23:36:43.007Z,23.39
2022-12-22T23:37:43.006Z,23.39
2022-12-22T23:38:43.539Z,23.39
2022-12-22T23:39:42.958Z,23.40
2022-12-22T23:40:58.265Z,23.39
2022-12-22T23:41:43.968Z,23.39
2022-12-22T23:42:42.952Z,23.39
2022-12-22T23:43:42.944Z,23.40
2022-12-22T23:44:42.916Z,23.39
2022-12-22T23:45:42.915Z,23.40
2022-12-22T23:46:43.011Z,23.40
2022-12-22T23:47:42.898Z,23.40
2022-12-22T23:48:42.885Z,23.40
2022-12-22T23:49:42.890Z,23.40
2022-12-22T23:50:42.904Z,23.40
2022-12-22T23:51:42.896Z,23.40
2022-12-22T23:52:48.939Z,23.40
2022-12-22T23:53:43.840Z,23.40
2022-12-22T23:54:43.546Z,23.40
2022-12-22T23:55:42.794Z,23.40
2022-12-22T23:56:42.832Z,23.40
2022-12-22T23:57:42.853Z,23.40
2022-12-22T23:58:42.826Z,23.40
2022-12-22T23:59:42.792Z,23.40
